sensor_id;sensor_type;location;lat;lon;timestamp;pressure;altitude;pressure_sealevel;temperature;humidity
66703;BME280;60933;46.398;-63.798;2023-04-04T00:00:16;101573.13;;;1.39;56.44
66703;BME280;60933;46.398;-63.798;2023-04-04T00:02:43;101563.03;;;1.42;56.43
66703;BME280;60933;46.398;-63.798;2023-04-04T00:05:09;101545.19;;;1.41;56.82
66703;BME280;60933;46.398;-63.798;2023-04-04T00:07:35;101545.97;;;1.38;56.74
66703;BME280;60933;46.398;-63.798;2023-04-04T00:10:01;101550.16;;;1.36;56.51
66703;BME280;60933;46.398;-63.798;2023-04-04T00:12:27;101568.03;;;1.39;56.01
66703;BME280;60933;46.398;-63.798;2023-04-04T00:14:53;101569.78;;;1.42;56.04
66703;BME280;60933;46.398;-63.798;2023-04-04T00:17:19;101569.91;;;1.47;56.22
66703;BME280;60933;46.398;-63.798;2023-04-04T00:19:45;101579.22;;;1.45;56.76
66703;BME280;60933;46.398;-63.798;2023-04-04T00:22:11;101582.59;;;1.45;56.29
66703;BME280;60933;46.398;-63.798;2023-04-04T00:24:40;101597.84;;;1.44;56.74
66703;BME280;60933;46.398;-63.798;2023-04-04T00:27:07;101591.59;;;1.32;57.15
66703;BME280;60933;46.398;-63.798;2023-04-04T00:29:33;101597.59;;;1.34;58.04
66703;BME280;60933;46.398;-63.798;2023-04-04T00:31:59;101567.75;;;1.29;57.87
66703;BME280;60933;46.398;-63.798;2023-04-04T00:34:25;101560.94;;;1.27;58.04
66703;BME280;60933;46.398;-63.798;2023-04-04T00:36:51;101540.66;;;1.29;56.99
66703;BME280;60933;46.398;-63.798;2023-04-04T00:39:18;101527.13;;;1.30;56.72
66703;BME280;60933;46.398;-63.798;2023-04-04T00:41:47;101516.81;;;1.25;57.25
66703;BME280;60933;46.398;-63.798;2023-04-04T00:44:13;101526.00;;;1.20;58.56
66703;BME280;60933;46.398;-63.798;2023-04-04T00:46:39;101521.63;;;1.15;58.26
66703;BME280;60933;46.398;-63.798;2023-04-04T00:49:05;101539.34;;;1.12;59.50
66703;BME280;60933;46.398;-63.798;2023-04-04T00:51:33;101543.47;;;1.08;59.12
66703;BME280;60933;46.398;-63.798;2023-04-04T00:53:59;101535.72;;;1.03;61.79
66703;BME280;60933;46.398;-63.798;2023-04-04T00:56:25;101532.13;;;0.97;61.90
66703;BME280;60933;46.398;-63.798;2023-04-04T00:58:51;101538.00;;;0.94;62.01
66703;BME280;60933;46.398;-63.798;2023-04-04T01:01:18;101537.13;;;0.92;62.24
66703;BME280;60933;46.398;-63.798;2023-04-04T01:03:44;101545.50;;;0.89;62.01
66703;BME280;60933;46.398;-63.798;2023-04-04T01:06:11;101542.94;;;0.88;61.89
66703;BME280;60933;46.398;-63.798;2023-04-04T01:08:37;101532.84;;;0.91;61.83
66703;BME280;60933;46.398;-63.798;2023-04-04T01:11:05;101531.03;;;0.87;63.62
66703;BME280;60933;46.398;-63.798;2023-04-04T01:13:32;101537.84;;;0.88;62.95
66703;BME280;60933;46.398;-63.798;2023-04-04T01:15:58;101555.59;;;0.86;64.47
66703;BME280;60933;46.398;-63.798;2023-04-04T01:18:25;101562.28;;;0.83;63.17
66703;BME280;60933;46.398;-63.798;2023-04-04T01:21:00;101579.28;;;0.85;62.39
66703;BME280;60933;46.398;-63.798;2023-04-04T01:24:00;101583.19;;;1.03;59.99
66703;BME280;60933;46.398;-63.798;2023-04-04T01:26:27;101584.19;;;1.09;59.78
66703;BME280;60933;46.398;-63.798;2023-04-04T01:28:57;101587.09;;;1.22;59.06
66703;BME280;60933;46.398;-63.798;2023-04-04T01:31:39;101588.38;;;1.39;57.86
66703;BME280;60933;46.398;-63.798;2023-04-04T01:37:10;101585.66;;;1.32;57.90
66703;BME280;60933;46.398;-63.798;2023-04-04T01:39:42;101600.97;;;1.35;58.43
66703;BME280;60933;46.398;-63.798;2023-04-04T01:42:10;101596.31;;;1.18;59.40
66703;BME280;60933;46.398;-63.798;2023-04-04T01:44:37;101602.75;;;1.05;61.48
66703;BME280;60933;46.398;-63.798;2023-04-04T01:47:06;101604.91;;;0.93;63.38
66703;BME280;60933;46.398;-63.798;2023-04-04T01:49:36;101603.72;;;0.80;64.29
66703;BME280;60933;46.398;-63.798;2023-04-04T01:52:02;101590.59;;;0.66;66.32
66703;BME280;60933;46.398;-63.798;2023-04-04T01:54:28;101598.81;;;0.57;66.06
66703;BME280;60933;46.398;-63.798;2023-04-04T01:56:55;101585.03;;;0.49;67.54
66703;BME280;60933;46.398;-63.798;2023-04-04T01:59:22;101592.31;;;0.38;67.97
66703;BME280;60933;46.398;-63.798;2023-04-04T02:01:48;101593.00;;;0.33;67.71
66703;BME280;60933;46.398;-63.798;2023-04-04T02:04:14;101592.66;;;0.22;67.29
66703;BME280;60933;46.398;-63.798;2023-04-04T02:06:41;101599.41;;;0.21;68.50
66703;BME280;60933;46.398;-63.798;2023-04-04T02:09:06;101586.47;;;0.13;67.80
66703;BME280;60933;46.398;-63.798;2023-04-04T02:11:32;101586.34;;;0.10;66.13
66703;BME280;60933;46.398;-63.798;2023-04-04T02:13:58;101577.78;;;0.07;66.43
66703;BME280;60933;46.398;-63.798;2023-04-04T02:16:25;101565.19;;;0.10;65.68
66703;BME280;60933;46.398;-63.798;2023-04-04T02:18:51;101560.13;;;0.10;66.06
66703;BME280;60933;46.398;-63.798;2023-04-04T02:21:17;101564.25;;;0.06;64.74
66703;BME280;60933;46.398;-63.798;2023-04-04T02:23:43;101565.00;;;0.04;64.87
66703;BME280;60933;46.398;-63.798;2023-04-04T02:26:09;101561.59;;;0.03;64.85
66703;BME280;60933;46.398;-63.798;2023-04-04T02:28:35;101557.13;;;-0.04;65.89
66703;BME280;60933;46.398;-63.798;2023-04-04T02:31:01;101545.97;;;-0.09;66.51
66703;BME280;60933;46.398;-63.798;2023-04-04T02:33:28;101544.94;;;-0.14;64.76
66703;BME280;60933;46.398;-63.798;2023-04-04T02:35:58;101542.22;;;-0.21;65.61
66703;BME280;60933;46.398;-63.798;2023-04-04T02:38:25;101546.38;;;-0.23;65.96
66703;BME280;60933;46.398;-63.798;2023-04-04T02:40:51;101522.59;;;-0.26;65.30
66703;BME280;60933;46.398;-63.798;2023-04-04T03:02:57;101472.53;;;-0.32;72.90
66703;BME280;60933;46.398;-63.798;2023-04-04T03:05:24;101462.53;;;-0.27;70.57
66703;BME280;60933;46.398;-63.798;2023-04-04T03:07:55;101462.84;;;-0.17;69.17
66703;BME280;60933;46.398;-63.798;2023-04-04T03:10:26;101474.09;;;-0.08;67.75
66703;BME280;60933;46.398;-63.798;2023-04-04T03:12:54;101471.81;;;0.01;66.22
66703;BME280;60933;46.398;-63.798;2023-04-04T03:15:20;101468.53;;;0.04;67.31
66703;BME280;60933;46.398;-63.798;2023-04-04T03:17:46;101468.59;;;0.05;65.64
66703;BME280;60933;46.398;-63.798;2023-04-04T03:20:12;101460.19;;;0.08;66.42
66703;BME280;60933;46.398;-63.798;2023-04-04T03:22:40;101457.69;;;0.09;67.01
66703;BME280;60933;46.398;-63.798;2023-04-04T03:25:06;101443.34;;;0.10;65.86
66703;BME280;60933;46.398;-63.798;2023-04-04T03:27:33;101432.41;;;0.12;67.45
66703;BME280;60933;46.398;-63.798;2023-04-04T03:29:59;101451.84;;;0.12;66.13
66703;BME280;60933;46.398;-63.798;2023-04-04T03:32:26;101428.00;;;0.07;67.65
66703;BME280;60933;46.398;-63.798;2023-04-04T03:34:52;101439.88;;;0.08;67.29
66703;BME280;60933;46.398;-63.798;2023-04-04T03:37:18;101437.38;;;0.09;66.75
66703;BME280;60933;46.398;-63.798;2023-04-04T03:39:47;101434.78;;;0.06;69.55
66703;BME280;60933;46.398;-63.798;2023-04-04T03:42:13;101422.88;;;0.05;68.14
66703;BME280;60933;46.398;-63.798;2023-04-04T03:44:43;101419.56;;;0.08;65.90
66703;BME280;60933;46.398;-63.798;2023-04-04T03:47:09;101411.03;;;0.06;66.96
66703;BME280;60933;46.398;-63.798;2023-04-04T03:49:35;101423.03;;;0.10;68.60
66703;BME280;60933;46.398;-63.798;2023-04-04T03:52:01;101436.66;;;0.13;67.48
66703;BME280;60933;46.398;-63.798;2023-04-04T03:54:28;101423.88;;;0.10;68.13
66703;BME280;60933;46.398;-63.798;2023-04-04T03:56:57;101408.56;;;0.07;67.40
66703;BME280;60933;46.398;-63.798;2023-04-04T03:59:28;101410.38;;;0.11;64.78
66703;BME280;60933;46.398;-63.798;2023-04-04T04:01:57;101409.69;;;0.17;67.02
66703;BME280;60933;46.398;-63.798;2023-04-04T04:04:23;101403.72;;;0.17;67.96
66703;BME280;60933;46.398;-63.798;2023-04-04T04:06:49;101407.88;;;0.13;68.01
66703;BME280;60933;46.398;-63.798;2023-04-04T04:09:15;101409.44;;;0.09;67.54
66703;BME280;60933;46.398;-63.798;2023-04-04T04:11:41;101407.72;;;0.08;68.33
66703;BME280;60933;46.398;-63.798;2023-04-04T04:14:07;101417.94;;;0.10;66.39
66703;BME280;60933;46.398;-63.798;2023-04-04T04:16:33;101421.34;;;0.10;65.60
66703;BME280;60933;46.398;-63.798;2023-04-04T04:18:59;101417.97;;;0.11;68.60
66703;BME280;60933;46.398;-63.798;2023-04-04T04:21:26;101423.88;;;0.10;68.05
66703;BME280;60933;46.398;-63.798;2023-04-04T04:23:52;101411.16;;;0.09;66.21
66703;BME280;60933;46.398;-63.798;2023-04-04T04:26:18;101408.75;;;0.13;65.67
66703;BME280;60933;46.398;-63.798;2023-04-04T04:28:44;101419.75;;;0.14;66.95
66703;BME280;60933;46.398;-63.798;2023-04-04T04:31:12;101415.34;;;0.08;67.65
66703;BME280;60933;46.398;-63.798;2023-04-04T04:33:41;101409.63;;;0.15;63.84
66703;BME280;60933;46.398;-63.798;2023-04-04T04:36:07;101408.00;;;0.18;65.12
66703;BME280;60933;46.398;-63.798;2023-04-04T04:38:33;101394.19;;;0.08;65.87
66703;BME280;60933;46.398;-63.798;2023-04-04T04:41:00;101397.91;;;0.19;66.40
66703;BME280;60933;46.398;-63.798;2023-04-04T04:43:26;101393.63;;;0.18;66.07
66703;BME280;60933;46.398;-63.798;2023-04-04T04:45:52;101389.50;;;0.22;65.51
66703;BME280;60933;46.398;-63.798;2023-04-04T04:48:19;101394.63;;;0.23;65.23
66703;BME280;60933;46.398;-63.798;2023-04-04T04:50:45;101390.34;;;0.22;64.81
66703;BME280;60933;46.398;-63.798;2023-04-04T04:53:12;101397.19;;;0.25;64.71
66703;BME280;60933;46.398;-63.798;2023-04-04T04:55:39;101385.41;;;0.27;63.59
66703;BME280;60933;46.398;-63.798;2023-04-04T04:58:08;101382.03;;;0.26;65.92
66703;BME280;60933;46.398;-63.798;2023-04-04T05:00:36;101371.81;;;0.25;64.77
66703;BME280;60933;46.398;-63.798;2023-04-04T05:03:03;101374.44;;;0.28;66.20
66703;BME280;60933;46.398;-63.798;2023-04-04T05:05:35;101371.03;;;0.27;65.92
66703;BME280;60933;46.398;-63.798;2023-04-04T05:08:02;101362.53;;;0.25;64.79
66703;BME280;60933;46.398;-63.798;2023-04-04T05:10:29;101367.78;;;0.33;64.41
66703;BME280;60933;46.398;-63.798;2023-04-04T05:12:55;101363.50;;;0.30;66.62
66703;BME280;60933;46.398;-63.798;2023-04-04T05:15:21;101352.56;;;0.33;67.75
66703;BME280;60933;46.398;-63.798;2023-04-04T05:17:47;101344.94;;;0.33;66.87
66703;BME280;60933;46.398;-63.798;2023-04-04T05:20:14;101341.59;;;0.34;65.87
66703;BME280;60933;46.398;-63.798;2023-04-04T05:22:43;101311.84;;;0.30;66.48
66703;BME280;60933;46.398;-63.798;2023-04-04T05:25:12;101316.22;;;0.36;66.02
66703;BME280;60933;46.398;-63.798;2023-04-04T05:27:39;101306.81;;;0.31;67.21
66703;BME280;60933;46.398;-63.798;2023-04-04T05:30:06;101314.44;;;0.31;67.88
66703;BME280;60933;46.398;-63.798;2023-04-04T05:32:33;101304.25;;;0.30;66.51
66703;BME280;60933;46.398;-63.798;2023-04-04T05:34:59;101298.13;;;0.23;67.91
66703;BME280;60933;46.398;-63.798;2023-04-04T05:37:25;101303.31;;;0.26;67.02
66703;BME280;60933;46.398;-63.798;2023-04-04T05:39:52;101307.50;;;0.26;69.76
66703;BME280;60933;46.398;-63.798;2023-04-04T05:42:19;101292.09;;;0.20;67.93
66703;BME280;60933;46.398;-63.798;2023-04-04T05:44:46;101297.19;;;0.20;71.78
66703;BME280;60933;46.398;-63.798;2023-04-04T05:47:12;101300.50;;;0.17;72.07
66703;BME280;60933;46.398;-63.798;2023-04-04T05:49:38;101295.31;;;0.12;73.91
66703;BME280;60933;46.398;-63.798;2023-04-04T05:52:03;101304.66;;;0.13;73.34
66703;BME280;60933;46.398;-63.798;2023-04-04T05:54:29;101316.44;;;0.11;73.71
66703;BME280;60933;46.398;-63.798;2023-04-04T05:56:55;101314.69;;;0.10;72.52
66703;BME280;60933;46.398;-63.798;2023-04-04T05:59:21;101315.59;;;0.11;72.73
66703;BME280;60933;46.398;-63.798;2023-04-04T06:01:48;101304.53;;;0.10;70.74
66703;BME280;60933;46.398;-63.798;2023-04-04T06:04:14;101305.47;;;0.12;71.04
66703;BME280;60933;46.398;-63.798;2023-04-04T06:06:39;101303.81;;;0.14;70.12
66703;BME280;60933;46.398;-63.798;2023-04-04T06:09:05;101314.84;;;0.15;71.83
66703;BME280;60933;46.398;-63.798;2023-04-04T06:11:32;101316.53;;;0.14;69.77
66703;BME280;60933;46.398;-63.798;2023-04-04T06:13:58;101313.13;;;0.15;71.22
66703;BME280;60933;46.398;-63.798;2023-04-04T06:16:24;101320.84;;;0.19;69.94
66703;BME280;60933;46.398;-63.798;2023-04-04T06:18:51;101329.28;;;0.18;70.00
66703;BME280;60933;46.398;-63.798;2023-04-04T06:21:17;101323.28;;;0.15;69.39
66703;BME280;60933;46.398;-63.798;2023-04-04T06:23:42;101329.34;;;0.19;71.27
66703;BME280;60933;46.398;-63.798;2023-04-04T06:26:08;101323.34;;;0.17;72.98
66703;BME280;60933;46.398;-63.798;2023-04-04T06:28:35;101319.06;;;0.14;73.32
66703;BME280;60933;46.398;-63.798;2023-04-04T06:31:04;101307.09;;;0.10;72.99
66703;BME280;60933;46.398;-63.798;2023-04-04T06:33:31;101312.16;;;0.10;74.12
66703;BME280;60933;46.398;-63.798;2023-04-04T06:35:57;101317.19;;;0.07;73.76
66703;BME280;60933;46.398;-63.798;2023-04-04T06:38:23;101313.69;;;0.04;73.00
66703;BME280;60933;46.398;-63.798;2023-04-04T06:40:49;101310.25;;;0.02;73.39
66703;BME280;60933;46.398;-63.798;2023-04-04T06:43:15;101296.59;;;-0.02;74.01
66703;BME280;60933;46.398;-63.798;2023-04-04T06:45:41;101299.03;;;-0.05;73.54
66703;BME280;60933;46.398;-63.798;2023-04-04T06:48:10;101298.06;;;-0.10;74.30
66703;BME280;60933;46.398;-63.798;2023-04-04T06:50:36;101289.47;;;-0.15;74.41
66703;BME280;60933;46.398;-63.798;2023-04-04T06:53:03;101294.56;;;-0.15;74.96
66703;BME280;60933;46.398;-63.798;2023-04-04T06:55:32;101291.00;;;-0.21;74.79
66703;BME280;60933;46.398;-63.798;2023-04-04T06:57:59;101290.06;;;-0.24;72.91
66703;BME280;60933;46.398;-63.798;2023-04-04T07:00:25;101285.78;;;-0.25;72.62
66703;BME280;60933;46.398;-63.798;2023-04-04T07:02:59;101288.28;;;-0.28;73.85
66703;BME280;60933;46.398;-63.798;2023-04-04T07:05:25;101278.91;;;-0.31;74.71
66703;BME280;60933;46.398;-63.798;2023-04-04T07:08:01;101290.66;;;-0.33;74.02
66703;BME280;60933;46.398;-63.798;2023-04-04T07:10:27;101281.97;;;-0.41;75.21
66703;BME280;60933;46.398;-63.798;2023-04-04T07:12:53;101291.38;;;-0.37;76.27
66703;BME280;60933;46.398;-63.798;2023-04-04T07:15:19;101279.34;;;-0.44;74.63
66703;BME280;60933;46.398;-63.798;2023-04-04T07:17:45;101297.19;;;-0.41;74.29
66703;BME280;60933;46.398;-63.798;2023-04-04T07:20:11;101295.38;;;-0.45;75.87
66703;BME280;60933;46.398;-63.798;2023-04-04T07:22:40;101298.75;;;-0.46;76.29
66703;BME280;60933;46.398;-63.798;2023-04-04T07:25:09;101296.09;;;-0.50;74.56
66703;BME280;60933;46.398;-63.798;2023-04-04T07:27:35;101305.34;;;-0.52;75.22
66703;BME280;60933;46.398;-63.798;2023-04-04T07:30:02;101290.91;;;-0.54;74.59
66703;BME280;60933;46.398;-63.798;2023-04-04T07:32:29;101301.00;;;-0.56;74.10
66703;BME280;60933;46.398;-63.798;2023-04-04T07:34:55;101308.69;;;-0.53;73.21
66703;BME280;60933;46.398;-63.798;2023-04-04T07:37:22;101315.47;;;-0.52;71.73
66703;BME280;60933;46.398;-63.798;2023-04-04T07:39:48;101313.84;;;-0.50;72.01
66703;BME280;60933;46.398;-63.798;2023-04-04T07:42:17;101307.81;;;-0.55;73.29
66703;BME280;60933;46.398;-63.798;2023-04-04T07:44:50;101321.44;;;-0.51;71.63
66703;BME280;60933;46.398;-63.798;2023-04-04T07:47:19;101311.16;;;-0.56;72.05
66703;BME280;60933;46.398;-63.798;2023-04-04T07:49:45;101315.31;;;-0.58;73.07
66703;BME280;60933;46.398;-63.798;2023-04-04T07:52:12;101318.63;;;-0.60;73.86
66703;BME280;60933;46.398;-63.798;2023-04-04T07:54:37;101315.97;;;-0.64;74.38
66703;BME280;60933;46.398;-63.798;2023-04-04T07:57:05;101310.75;;;-0.68;73.71
66703;BME280;60933;46.398;-63.798;2023-04-04T07:59:35;101314.97;;;-0.69;73.11
66703;BME280;60933;46.398;-63.798;2023-04-04T08:02:01;101311.38;;;-0.75;73.20
66703;BME280;60933;46.398;-63.798;2023-04-04T08:04:27;101304.59;;;-0.76;73.12
66703;BME280;60933;46.398;-63.798;2023-04-04T08:06:53;101299.47;;;-0.78;72.02
66703;BME280;60933;46.398;-63.798;2023-04-04T08:09:19;101307.09;;;-0.78;71.87
66703;BME280;60933;46.398;-63.798;2023-04-04T08:11:44;101304.50;;;-0.80;70.51
66703;BME280;60933;46.398;-63.798;2023-04-04T08:14:10;101294.34;;;-0.81;72.46
66703;BME280;60933;46.398;-63.798;2023-04-04T08:16:38;101295.06;;;-0.84;71.29
66703;BME280;60933;46.398;-63.798;2023-04-04T08:19:04;101291.66;;;-0.86;70.04
66703;BME280;60933;46.398;-63.798;2023-04-04T08:21:31;101297.59;;;-0.84;69.99
66703;BME280;60933;46.398;-63.798;2023-04-04T08:23:58;101297.72;;;-0.81;70.61
66703;BME280;60933;46.398;-63.798;2023-04-04T08:26:24;101296.91;;;-0.80;70.35
66703;BME280;60933;46.398;-63.798;2023-04-04T08:28:50;101299.47;;;-0.78;70.62
66703;BME280;60933;46.398;-63.798;2023-04-04T08:31:16;101298.63;;;-0.78;70.05
66703;BME280;60933;46.398;-63.798;2023-04-04T08:33:42;101301.94;;;-0.81;68.34
66703;BME280;60933;46.398;-63.798;2023-04-04T08:36:11;101287.25;;;-0.91;70.41
66703;BME280;60933;46.398;-63.798;2023-04-04T08:38:40;101301.84;;;-0.84;69.09
66703;BME280;60933;46.398;-63.798;2023-04-04T08:41:15;101322.41;;;-0.75;75.28
66703;BME280;60933;46.398;-63.798;2023-04-04T08:43:43;101321.44;;;-0.78;77.53
66703;BME280;60933;46.398;-63.798;2023-04-04T08:46:11;101323.06;;;-0.81;76.85
66703;BME280;60933;46.398;-63.798;2023-04-04T08:48:41;101313.59;;;-0.86;75.44
66703;BME280;60933;46.398;-63.798;2023-04-04T08:51:11;101312.69;;;-0.88;75.75
66703;BME280;60933;46.398;-63.798;2023-04-04T08:53:59;101318.50;;;-0.91;77.13
66703;BME280;60933;46.398;-63.798;2023-04-04T08:56:27;101312.63;;;-0.90;75.37
66703;BME280;60933;46.398;-63.798;2023-04-04T08:58:54;101320.09;;;-0.94;76.27
66703;BME280;60933;46.398;-63.798;2023-04-04T09:01:26;101317.63;;;-0.93;78.15
66703;BME280;60933;46.398;-63.798;2023-04-04T09:03:56;101308.19;;;-0.97;78.10
66703;BME280;60933;46.398;-63.798;2023-04-04T09:06:27;101318.50;;;-0.91;79.09
66703;BME280;60933;46.398;-63.798;2023-04-04T09:08:54;101322.69;;;-0.93;78.96
66703;BME280;60933;46.398;-63.798;2023-04-04T09:11:22;101316.59;;;-0.98;79.71
66703;BME280;60933;46.398;-63.798;2023-04-04T09:13:50;101339.56;;;-0.93;78.51
66703;BME280;60933;46.398;-63.798;2023-04-04T09:16:39;101347.19;;;-0.92;79.28
66703;BME280;60933;46.398;-63.798;2023-04-04T09:19:06;101353.19;;;-0.90;79.26
66703;BME280;60933;46.398;-63.798;2023-04-04T09:21:33;101355.69;;;-0.91;78.55
66703;BME280;60933;46.398;-63.798;2023-04-04T09:24:03;101359.88;;;-0.92;78.89
66703;BME280;60933;46.398;-63.798;2023-04-04T09:26:51;101369.28;;;-0.89;79.35
66703;BME280;60933;46.398;-63.798;2023-04-04T09:29:18;101363.31;;;-0.90;80.71
66703;BME280;60933;46.398;-63.798;2023-04-04T09:31:48;101368.50;;;-0.87;81.62
66703;BME280;60933;46.398;-63.798;2023-04-04T09:34:17;101374.44;;;-0.86;82.24
66703;BME280;60933;46.398;-63.798;2023-04-04T09:36:52;101387.09;;;-0.86;81.59
66703;BME280;60933;46.398;-63.798;2023-04-04T09:39:19;101377.84;;;-0.86;81.67
66703;BME280;60933;46.398;-63.798;2023-04-04T09:41:48;101370.00;;;-0.92;82.08
66703;BME280;60933;46.398;-63.798;2023-04-04T09:44:18;101393.06;;;-0.86;80.27
66703;BME280;60933;46.398;-63.798;2023-04-04T09:46:44;101393.09;;;-0.84;80.34
66703;BME280;60933;46.398;-63.798;2023-04-04T09:49:18;101387.97;;;-0.86;78.84
66703;BME280;60933;46.398;-63.798;2023-04-04T09:51:55;101398.13;;;-0.86;79.50
66703;BME280;60933;46.398;-63.798;2023-04-04T09:54:22;101400.72;;;-0.83;80.42
66703;BME280;60933;46.398;-63.798;2023-04-04T09:56:52;101393.84;;;-0.87;80.65
66703;BME280;60933;46.398;-63.798;2023-04-04T09:59:18;101399.00;;;-0.84;80.36
66703;BME280;60933;46.398;-63.798;2023-04-04T10:01:44;101410.88;;;-0.83;80.79
66703;BME280;60933;46.398;-63.798;2023-04-04T10:04:15;101416.91;;;-0.79;82.29
66703;BME280;60933;46.398;-63.798;2023-04-04T10:06:42;101414.34;;;-0.81;82.92
66703;BME280;60933;46.398;-63.798;2023-04-04T10:09:09;101424.63;;;-0.76;82.89
66703;BME280;60933;46.398;-63.798;2023-04-04T10:11:39;101427.16;;;-0.76;82.84
66703;BME280;60933;46.398;-63.798;2023-04-04T10:14:05;101424.66;;;-0.74;83.25
66703;BME280;60933;46.398;-63.798;2023-04-04T10:16:35;101438.16;;;-0.75;82.79
66703;BME280;60933;46.398;-63.798;2023-04-04T10:19:03;101429.84;;;-0.71;83.49
66703;BME280;60933;46.398;-63.798;2023-04-04T10:21:36;101434.13;;;-0.70;83.44
66703;BME280;60933;46.398;-63.798;2023-04-04T10:24:03;101438.47;;;-0.66;83.22
66703;BME280;60933;46.398;-63.798;2023-04-04T10:26:34;101435.97;;;-0.65;83.00
66703;BME280;60933;46.398;-63.798;2023-04-04T10:29:19;101435.13;;;-0.65;83.01
66703;BME280;60933;46.398;-63.798;2023-04-04T10:31:49;101436.91;;;-0.61;82.26
66703;BME280;60933;46.398;-63.798;2023-04-04T10:34:26;101427.75;;;-0.57;83.06
66703;BME280;60933;46.398;-63.798;2023-04-04T10:37:07;101417.59;;;-0.57;82.25
66703;BME280;60933;46.398;-63.798;2023-04-04T10:42:14;101440.53;;;-0.54;80.70
66703;BME280;60933;46.398;-63.798;2023-04-04T10:44:43;101453.41;;;-0.48;80.14
66703;BME280;60933;46.398;-63.798;2023-04-04T10:47:17;101446.47;;;-0.54;78.62
66703;BME280;60933;46.398;-63.798;2023-04-04T10:49:47;101444.41;;;-0.38;81.52
66703;BME280;60933;46.398;-63.798;2023-04-04T10:52:16;101447.03;;;-0.35;80.31
66703;BME280;60933;46.398;-63.798;2023-04-04T10:54:46;101452.22;;;-0.32;80.86
66703;BME280;60933;46.398;-63.798;2023-04-04T10:57:15;101455.03;;;-0.23;82.31
66703;BME280;60933;46.398;-63.798;2023-04-04T11:00:15;101468.81;;;-0.14;81.72
66703;BME280;60933;46.398;-63.798;2023-04-04T11:02:53;101458.81;;;-0.10;82.72
66703;BME280;60933;46.398;-63.798;2023-04-04T11:05:34;101447.97;;;-0.06;81.93
66703;BME280;60933;46.398;-63.798;2023-04-04T11:08:21;101460.84;;;0.02;83.13
66703;BME280;60933;46.398;-63.798;2023-04-04T11:10:51;101471.28;;;0.11;83.15
66703;BME280;60933;46.398;-63.798;2023-04-04T11:13:25;101468.78;;;0.13;83.20
66703;BME280;60933;46.398;-63.798;2023-04-04T11:16:10;101474.19;;;0.24;83.34
66703;BME280;60933;46.398;-63.798;2023-04-04T11:21:17;101489.88;;;0.39;83.31
66703;BME280;60933;46.398;-63.798;2023-04-04T11:29:04;101491.53;;;0.68;82.38
66703;BME280;60933;46.398;-63.798;2023-04-04T11:31:43;101498.63;;;0.79;81.20
66703;BME280;60933;46.398;-63.798;2023-04-04T11:34:11;101492.00;;;0.85;77.58
66703;BME280;60933;46.398;-63.798;2023-04-04T11:41:52;101492.81;;;1.16;80.51
66703;BME280;60933;46.398;-63.798;2023-04-04T11:44:20;101499.78;;;1.23;79.39
66703;BME280;60933;46.398;-63.798;2023-04-04T11:46:47;101503.38;;;1.31;79.24
66703;BME280;60933;46.398;-63.798;2023-04-04T11:49:14;101507.84;;;1.40;79.73
66703;BME280;60933;46.398;-63.798;2023-04-04T11:51:41;101519.03;;;1.47;78.97
66703;BME280;60933;46.398;-63.798;2023-04-04T11:54:16;101506.38;;;1.48;79.54
66703;BME280;60933;46.398;-63.798;2023-04-04T11:56:44;101515.13;;;1.61;79.22
66703;BME280;60933;46.398;-63.798;2023-04-04T11:59:11;101522.97;;;1.69;79.26
66703;BME280;60933;46.398;-63.798;2023-04-04T12:01:40;101509.41;;;1.68;79.11
66703;BME280;60933;46.398;-63.798;2023-04-04T12:04:07;101518.28;;;1.86;78.60
66703;BME280;60933;46.398;-63.798;2023-04-04T12:06:33;101522.78;;;1.96;77.82
66703;BME280;60933;46.398;-63.798;2023-04-04T12:09:04;101518.72;;;2.04;78.22
66703;BME280;60933;46.398;-63.798;2023-04-04T12:11:33;101512.91;;;2.10;78.54
66703;BME280;60933;46.398;-63.798;2023-04-04T12:13:59;101512.25;;;2.19;77.86
66703;BME280;60933;46.398;-63.798;2023-04-04T12:16:28;101516.72;;;2.29;77.62
66703;BME280;60933;46.398;-63.798;2023-04-04T12:19:00;101519.53;;;2.42;77.46
66703;BME280;60933;46.398;-63.798;2023-04-04T12:21:28;101510.34;;;2.48;76.70
66703;BME280;60933;46.398;-63.798;2023-04-04T12:23:56;101515.78;;;2.65;77.42
66703;BME280;60933;46.398;-63.798;2023-04-04T12:26:22;101522.78;;;2.76;76.08
66703;BME280;60933;46.398;-63.798;2023-04-04T12:28:49;101524.84;;;2.94;77.14
66703;BME280;60933;46.398;-63.798;2023-04-04T12:31:17;101529.34;;;3.09;75.96
66703;BME280;60933;46.398;-63.798;2023-04-04T12:33:44;101531.28;;;3.22;76.34
66703;BME280;60933;46.398;-63.798;2023-04-04T12:36:10;101513.69;;;3.36;76.52
66703;BME280;60933;46.398;-63.798;2023-04-04T12:39:01;101516.41;;;3.47;74.79
66703;BME280;60933;46.398;-63.798;2023-04-04T12:41:27;101514.91;;;3.58;74.56
66703;BME280;60933;46.398;-63.798;2023-04-04T12:44:01;101517.66;;;3.72;74.89
66703;BME280;60933;46.398;-63.798;2023-04-04T12:46:28;101510.06;;;3.75;75.21
66703;BME280;60933;46.398;-63.798;2023-04-04T12:48:59;101503.97;;;3.67;74.57
66703;BME280;60933;46.398;-63.798;2023-04-04T12:51:32;101510.81;;;3.68;74.07
66703;BME280;60933;46.398;-63.798;2023-04-04T12:54:02;101506.44;;;3.61;73.90
66703;BME280;60933;46.398;-63.798;2023-04-04T12:56:30;101504.81;;;3.64;73.03
66703;BME280;60933;46.398;-63.798;2023-04-04T12:59:00;101498.94;;;3.70;72.98
66703;BME280;60933;46.398;-63.798;2023-04-04T13:01:30;101507.53;;;3.77;72.19
66703;BME280;60933;46.398;-63.798;2023-04-04T13:04:00;101510.91;;;3.74;71.75
66703;BME280;60933;46.398;-63.798;2023-04-04T13:06:30;101520.28;;;3.74;72.10
66703;BME280;60933;46.398;-63.798;2023-04-04T13:08:57;101529.66;;;3.75;72.13
66703;BME280;60933;46.398;-63.798;2023-04-04T13:11:24;101532.22;;;3.76;73.00
66703;BME280;60933;46.398;-63.798;2023-04-04T13:14:02;101528.91;;;3.82;73.67
66703;BME280;60933;46.398;-63.798;2023-04-04T13:18:56;101535.97;;;3.99;73.03
66703;BME280;60933;46.398;-63.798;2023-04-04T13:21:22;101541.13;;;4.02;72.98